Last 24 Hours

Coyote Canyon

10 Minute Data | America/Los_Angeles
as of 8/30/26 10:11 PM PDT
Date & Time Temp (°F) Dew Pt (°F) RH (%) Wind Spd (mph) Wind Dir (°) Wind Gust (mph) Wind Gst Dir (°) Daily Max Temp (°F) Daily Min Temp (°F)
8/30/26 - 2210 69.6 39.9 34 7.5 NNW | 336 10.9 NW | 316 89.9 66.7
8/30/26 - 2200 69.0 39.8 34 8.9 NNW | 328 12.1 NNW | 338 89.9 66.7
8/30/26 - 2150 69.3 40.1 34 9.3 NW | 320 12.6 NW | 323 89.9 66.7
8/30/26 - 2140 70.0 40.4 34 8.8 NW | 310 12.6 NW | 307 89.9 66.7
8/30/26 - 2130 70.2 40.6 34 9.7 NW | 309 14.2 WNW | 296 89.9 66.7
8/30/26 - 2120 70.2 40.9 34 10.2 NW | 313 14.8 WNW | 303 89.9 66.7
8/30/26 - 2110 71.2 40.3 33 9.8 NW | 311 15.5 WNW | 301 89.9 66.7
8/30/26 - 2100 71.8 41.0 33 10.5 NW | 304 16.4 WNW | 297 89.9 66.7
8/30/26 - 2050 72.4 41.7 33 13.3 WNW | 303 19.5 NW | 312 89.9 66.7
8/30/26 - 2040 73.2 41.1 31 16.3 WNW | 297 21.8 WNW | 297 89.9 66.7
8/30/26 - 2030 73.1 41.9 32 16.6 WNW | 296 21.8 WNW | 286 89.9 66.7
8/30/26 - 2020 72.7 42.8 34 15.0 WNW | 301 20.5 WNW | 292 89.9 66.7
8/30/26 - 2010 72.8 44.2 36 15.1 WNW | 300 19.9 WNW | 300 89.9 66.7
8/30/26 - 2000 73.4 44.8 36 15.6 WNW | 301 23.7 WNW | 296 89.9 66.7
8/30/26 - 1950 74.0 44.3 34 16.0 WNW | 300 23.6 NW | 304 89.9 66.7
8/30/26 - 1940 74.5 45.2 35 15.8 WNW | 302 23.5 WNW | 303 89.9 66.7
8/30/26 - 1930 74.9 45.2 35 11.8 NW | 307 21.3 NW | 307 89.9 66.7
8/30/26 - 1920 75.5 44.4 33 13.5 NW | 305 20.3 WNW | 301 89.9 66.7
8/30/26 - 1910 76.3 45.8 34 15.2 WNW | 300 23.2 WNW | 295 89.9 66.7
8/30/26 - 1900 77.0 45.6 33 16.3 WNW | 288 23.3 WNW | 302 89.9 66.7
8/30/26 - 1850 77.7 45.8 32 15.7 WNW | 284 24.0 WNW | 285 89.9 66.7
8/30/26 - 1840 78.4 45.9 32 16.6 W | 280 26.0 WNW | 284 89.9 66.7
8/30/26 - 1830 79.0 46.0 31 18.8 W | 280 27.8 WNW | 285 89.9 66.7
8/30/26 - 1820 79.7 45.3 30 19.6 W | 280 27.5 WNW | 285 89.9 66.7
8/30/26 - 1810 80.1 45.4 29 21.0 WNW | 283 30.9 WNW | 284 89.9 66.7
8/30/26 - 1800 81.0 45.5 29 21.9 WNW | 291 28.8 WNW | 301 89.9 66.7
8/30/26 - 1750 81.9 45.3 28 18.3 WNW | 294 24.8 NW | 311 89.9 66.7
8/30/26 - 1740 81.9 47.1 30 18.5 WNW | 290 26.4 WNW | 291 89.9 66.7
8/30/26 - 1730 81.8 47.6 30 19.6 WNW | 287 27.8 WNW | 284 89.9 66.7
8/30/26 - 1720 82.6 46.6 28 18.8 WNW | 289 26.7 WNW | 291 89.9 66.7
8/30/26 - 1710 83.4 46.6 28 17.3 WNW | 289 26.8 WNW | 301 89.9 66.7
8/30/26 - 1700 83.5 47.8 29 16.2 WNW | 287 23.1 WNW | 291 89.9 66.7
8/30/26 - 1650 83.8 48.5 29 16.4 WNW | 287 24.3 WNW | 295 89.9 66.7
8/30/26 - 1640 83.9 48.0 29 18.6 W | 271 26.8 W | 276 89.9 66.7
8/30/26 - 1630 84.8 47.5 27 16.5 WNW | 282 30.8 WNW | 291 89.9 66.7
8/30/26 - 1620 84.5 47.0 27 19.6 WNW | 294 26.6 WNW | 289 89.9 66.7
8/30/26 - 1610 85.3 46.6 26 16.5 WNW | 285 22.3 W | 280 89.9 66.7
8/30/26 - 1600 85.2 47.5 27 16.5 W | 274 23.1 W | 280 89.9 66.7
8/30/26 - 1550 85.7 47.7 27 15.6 W | 280 22.6 WNW | 288 89.9 66.7
8/30/26 - 1540 86.5 48.0 26 11.6 W | 261 18.4 WSW | 256 89.9 66.7
8/30/26 - 1530 86.3 47.7 26 14.3 W | 263 23.3 WSW | 254 89.9 66.7
8/30/26 - 1520 86.4 48.6 27 13.6 W | 265 23.3 WNW | 284 89.9 66.7
8/30/26 - 1510 86.9 49.5 28 16.7 W | 261 24.8 W | 280 89.9 66.7
8/30/26 - 1500 87.5 50.5 28 14.1 WSW | 252 24.6 SW | 232 89.9 66.7
8/30/26 - 1450 87.7 51.1 29 12.2 WSW | 242 22.4 WSW | 237 89.9 66.7
8/30/26 - 1440 88.4 51.8 29 10.6 WSW | 256 22.3 SW | 228 89.9 66.7
8/30/26 - 1430 87.1 51.7 30 12.6 WSW | 256 25.0 WSW | 242 89.6 66.7
8/30/26 - 1420 86.2 51.7 31 13.5 W | 276 25.4 W | 281 89.6 66.7
8/30/26 - 1410 86.5 51.5 30 14.8 WNW | 290 22.6 WNW | 286 89.6 66.7
8/30/26 - 1400 87.1 51.6 30 13.1 WNW | 285 23.7 W | 278 89.6 66.7
8/30/26 - 1350 87.1 51.1 29 12.0 W | 263 21.0 NW | 314 89.6 66.7
8/30/26 - 1340 88.6 50.7 27 11.9 SSW | 202 24.0 S | 188 89.6 66.7
8/30/26 - 1330 86.9 49.5 28 14.2 SW | 215 22.9 SSW | 206 88.9 66.7
8/30/26 - 1320 86.9 49.0 27 16.7 SSW | 210 26.7 SSW | 208 88.9 66.7
8/30/26 - 1310 86.5 48.3 27 14.1 SSW | 205 26.8 SSW | 208 88.9 66.7
8/30/26 - 1300 87.2 48.3 26 13.4 SSW | 210 22.1 SSW | 203 88.9 66.7
8/30/26 - 1250 87.8 48.2 26 11.3 SSW | 205 22.5 SSW | 194 88.9 66.7
8/30/26 - 1240 87.5 48.4 26 10.1 SW | 218 19.4 SW | 230 88.9 66.7
8/30/26 - 1230 85.8 48.3 27 4.6 W | 270 15.5 NNW | 327 88.9 66.7
8/30/26 - 1220 87.7 48.3 26 4.7 SSW | 212 16.4 SSE | 165 88.9 66.7
8/30/26 - 1210 87.6 48.0 25 5.9 WSW | 249 15.4 WSW | 246 88.9 66.7
8/30/26 - 1200 86.3 47.7 26 7.4 W | 266 14.3 W | 277 88.9 66.7
8/30/26 - 1150 87.6 47.6 25 6.1 SW | 222 11.9 W | 262 88.9 66.7
8/30/26 - 1140 84.9 46.4 26 9.5 WNW | 284 17.9 WNW | 303 86.5 66.7
8/30/26 - 1130 84.8 46.3 26 12.6 WNW | 292 18.3 WNW | 299 86.5 66.7
8/30/26 - 1120 84.6 46.1 26 9.2 WNW | 288 17.9 W | 267 86.5 66.7
8/30/26 - 1110 85.8 46.3 25 10.4 W | 261 20.7 W | 280 86.5 66.7
8/30/26 - 1100 84.6 45.9 26 11.0 W | 270 20.6 WNW | 298 85.4 66.7
8/30/26 - 1050 84.7 45.9 26 9.0 W | 277 16.4 W | 273 85.1 66.7
8/30/26 - 1040 83.6 45.9 27 10.1 W | 268 16.2 WSW | 253 84.3 66.7
8/30/26 - 1030 83.0 46.4 28 7.9 W | 281 12.3 NW | 308 84.3 66.7
8/30/26 - 1020 82.4 46.7 29 8.5 NW | 306 16.1 NW | 315 83.1 66.7
8/30/26 - 1010 81.3 46.8 30 9.9 WNW | 300 16.4 WNW | 288 82.1 66.7
8/30/26 - 1000 80.9 46.8 30 10.3 WNW | 295 16.7 WNW | 302 81.8 66.7
8/30/26 - 0950 79.9 47.0 32 10.7 NW | 304 16.5 WNW | 298 80.3 66.7
8/30/26 - 0940 79.4 47.2 32 12.4 WNW | 300 18.0 WNW | 296 79.9 66.7
8/30/26 - 0930 78.6 46.8 33 12.7 WNW | 296 18.5 NW | 308 79.3 66.7
8/30/26 - 0920 78.6 46.9 33 11.8 WNW | 293 17.5 WNW | 294 79.3 66.7
8/30/26 - 0910 78.1 47.0 33 11.0 NW | 307 16.6 NW | 311 79.0 66.7
8/30/26 - 0900 77.4 46.7 34 11.2 NW | 312 15.6 NW | 315 78.0 66.7
8/30/26 - 0850 76.7 46.8 35 11.4 WNW | 300 17.0 WNW | 294 77.0 66.7
8/30/26 - 0840 76.1 46.8 35 11.6 WNW | 302 16.7 NW | 310 76.5 66.7
8/30/26 - 0830 75.9 46.9 36 9.9 NW | 306 13.2 NW | 316 76.1 66.7
8/30/26 - 0820 75.4 47.3 37 9.6 NW | 307 15.0 WNW | 302 75.6 66.7
8/30/26 - 0810 74.1 48.0 40 9.3 NW | 305 13.3 NW | 321 74.9 66.7
8/30/26 - 0800 72.1 48.7 43 8.4 NW | 306 11.2 NW | 306 73.1 66.7
8/30/26 - 0750 71.1 48.3 44 7.4 NW | 306 9.7 NW | 307 72.6 66.7
8/30/26 - 0740 70.7 48.1 45 8.4 NW | 308 10.2 WNW | 303 72.6 66.7
8/30/26 - 0730 70.5 47.7 44 8.4 NW | 310 9.7 NW | 306 72.6 66.7
8/30/26 - 0720 69.6 48.0 46 8.3 NW | 313 9.4 NW | 318 72.6 66.7
8/30/26 - 0710 69.0 48.3 48 9.2 NW | 310 10.3 NW | 314 72.6 66.7
8/30/26 - 0700 69.5 48.2 47 9.5 NW | 312 10.6 NW | 309 72.6 66.7
8/30/26 - 0650 70.3 48.1 45 9.0 NW | 314 10.5 NW | 309 72.6 66.7
8/30/26 - 0640 71.8 48.0 43 7.0 NW | 322 8.0 NW | 314 72.6 66.7
8/30/26 - 0630 72.4 48.0 42 6.1 NW | 324 8.5 NNW | 328 72.6 66.7
8/30/26 - 0620 72.0 48.2 43 7.1 NNW | 327 8.3 NNW | 337 72.5 66.7
8/30/26 - 0610 71.7 48.6 44 7.3 NNW | 336 8.7 NNW | 333 72.5 66.7
8/30/26 - 0600 71.9 48.9 44 7.4 NNW | 329 9.4 NNW | 332 72.5 66.7
8/30/26 - 0550 72.2 49.0 44 8.8 NW | 318 9.8 NW | 317 72.5 66.7
8/30/26 - 0540 71.8 49.2 45 9.3 NW | 313 11.0 NW | 304 72.5 66.7
8/30/26 - 0530 70.1 49.2 47 10.4 NW | 311 11.8 NW | 313 71.8 66.7
8/30/26 - 0520 69.1 49.1 49 10.4 WNW | 303 12.1 WNW | 302 70.6 66.7
8/30/26 - 0510 69.1 49.2 49 10.9 WNW | 299 12.7 WNW | 294 70.6 66.7
8/30/26 - 0500 69.0 49.2 49 11.4 WNW | 296 13.5 WNW | 299 70.6 66.7
8/30/26 - 0450 69.2 49.2 49 11.0 WNW | 293 12.9 WNW | 297 70.6 66.7
8/30/26 - 0440 68.4 49.2 50 11.6 WNW | 295 13.8 WNW | 293 70.6 66.7
8/30/26 - 0430 67.8 49.3 51 12.3 WNW | 296 15.3 WNW | 298 70.6 66.7
8/30/26 - 0420 67.5 49.4 52 13.6 WNW | 297 17.5 WNW | 289 70.6 66.7
8/30/26 - 0410 67.0 49.4 53 14.5 WNW | 298 17.8 WNW | 297 70.6 66.7
8/30/26 - 0400 67.1 49.4 53 15.3 WNW | 295 19.4 WNW | 290 70.6 66.8
8/30/26 - 0350 67.6 49.6 52 15.0 WNW | 289 18.7 WNW | 287 70.6 66.8
8/30/26 - 0340 68.0 49.8 52 15.5 WNW | 290 19.6 WNW | 295 70.6 66.8
8/30/26 - 0330 67.9 49.8 52 16.1 WNW | 293 19.9 WNW | 298 70.6 66.8
8/30/26 - 0320 68.0 50.0 52 17.7 WNW | 294 22.3 WNW | 294 70.6 66.8
8/30/26 - 0310 68.0 50.2 53 17.6 WNW | 297 20.5 WNW | 294 70.6 66.8
8/30/26 - 0300 68.1 50.5 53 17.0 WNW | 296 21.3 WNW | 292 70.6 66.8
8/30/26 - 0250 68.2 50.7 54 15.6 WNW | 299 19.1 WNW | 297 70.6 66.8
8/30/26 - 0240 67.5 50.9 55 16.3 WNW | 302 20.1 WNW | 300 70.6 66.8
8/30/26 - 0230 67.4 51.0 56 15.5 WNW | 301 19.6 WNW | 295 70.6 66.8
8/30/26 - 0220 67.2 51.1 56 14.6 WNW | 299 17.5 WNW | 294 70.6 66.8
8/30/26 - 0210 67.7 51.4 56 14.3 WNW | 297 16.6 WNW | 290 70.6 67.3
8/30/26 - 0200 68.2 51.6 55 12.9 WNW | 300 15.4 WNW | 302 70.6 68.1
8/30/26 - 0150 68.7 51.8 55 12.2 WNW | 299 14.0 WNW | 300 70.6 68.5
8/30/26 - 0140 69.1 52.0 54 12.0 WNW | 299 13.9 NW | 309 70.6 68.8
8/30/26 - 0130 69.6 52.3 54 12.5 WNW | 297 13.8 WNW | 295 70.6 69.2
8/30/26 - 0120 69.6 52.3 54 12.3 WNW | 299 14.7 WNW | 299 70.6 69.2
8/30/26 - 0110 70.4 52.7 53 12.0 WNW | 297 13.9 WNW | 297 70.6 70.1
8/30/26 - 0100 70.5 52.4 53 11.6 WNW | 300 13.4 NW | 304 90.0 70.3
8/30/26 - 0050 70.9 52.3 52 11.4 WNW | 301 14.0 WNW | 299 90.0 70.6
8/30/26 - 0040 71.4 52.4 51 11.4 WNW | 302 13.2 WNW | 301 90.0 71.2
8/30/26 - 0030 71.6 52.4 51 10.9 WNW | 300 12.1 NW | 304 90.0 71.4
8/30/26 - 0020 72.0 52.3 50 9.7 NW | 304 11.4 NW | 304 90.0 71.5
8/30/26 - 0010 72.4 51.9 49 8.7 NW | 306 10.3 WNW | 301 90.0 72.2
8/30/26 - 0000 72.6 51.7 48 9.0 NW | 309 10.7 WNW | 299 90.0 72.2
8/29/26 - 2350 72.9 51.5 47 8.8 NW | 316 10.5 NW | 317 90.0 72.2
8/29/26 - 2340 73.0 51.7 47 8.3 NW | 318 9.7 NW | 323 90.0 72.2
8/29/26 - 2330 73.1 51.7 47 9.1 NW | 318 10.5 NW | 322 90.0 72.2
8/29/26 - 2320 73.2 51.6 47 9.6 NW | 320 11.8 NW | 315 90.0 72.2
8/29/26 - 2310 73.4 51.3 46 9.6 NW | 318 11.9 NW | 313 90.0 72.2
8/29/26 - 2300 73.4 51.0 45 10.2 NW | 316 12.1 NW | 318 90.0 72.2
8/29/26 - 2250 73.5 51.0 45 11.3 NW | 318 15.1 NW | 320 90.0 72.2
8/29/26 - 2240 73.2 51.1 46 11.0 NW | 318 14.8 NW | 310 90.0 72.2
8/29/26 - 2230 72.7 51.3 47 10.4 NW | 322 13.5 NW | 323 90.0 72.2
8/29/26 - 2220 72.4 51.4 48 11.1 NW | 314 16.4 NW | 310 90.0 72.2
8/29/26 - 2210 72.4 51.4 48 11.3 NW | 306 17.0 NW | 308 90.0 72.2
Max 88.6 52.7 56 21.9 - 30.9 - 90.0 72.2
Avg 76.5 48.0 38 12.3 - 17.7 - - -
Min 67.0 39.8 25 4.6 - 8.0 - 70.6 66.7